createdAt,value
2022-12-19T00:01:34.863Z,7.83
2022-12-19T00:04:04.719Z,5.77
2022-12-19T00:06:34.091Z,6.60
2022-12-19T00:09:01.643Z,6.53
2022-12-19T00:11:29.153Z,6.83
2022-12-19T00:13:56.251Z,8.57
2022-12-19T00:16:24.842Z,7.60
2022-12-19T00:18:54.834Z,7.37
2022-12-19T00:21:23.518Z,7.03
2022-12-19T00:23:50.905Z,6.67
2022-12-19T00:26:28.561Z,6.87
2022-12-19T00:28:57.083Z,6.57
2022-12-19T00:31:24.556Z,5.90
2022-12-19T00:33:51.950Z,7.30
2022-12-19T00:36:21.805Z,5.83
2022-12-19T00:38:51.249Z,6.10
2022-12-19T00:41:19.712Z,5.67
2022-12-19T00:43:47.085Z,6.40
2022-12-19T00:46:15.328Z,6.43
2022-12-19T00:48:43.126Z,7.53
2022-12-19T00:51:17.869Z,7.10
2022-12-19T00:53:45.487Z,4.83
2022-12-19T00:56:14.112Z,4.23
2022-12-19T00:58:46.606Z,5.00
2022-12-19T01:01:19.387Z,6.53
2022-12-19T01:04:18.814Z,5.83
2022-12-19T01:06:34.000Z,5.97
2022-12-19T01:09:01.476Z,7.77
2022-12-19T01:11:47.082Z,5.93
2022-12-19T01:14:20.916Z,5.73
2022-12-19T01:16:49.925Z,6.70
2022-12-19T01:19:17.068Z,6.20
2022-12-19T01:21:44.235Z,5.10
2022-12-19T01:24:11.946Z,3.80
2022-12-19T01:26:39.019Z,5.87
2022-12-19T01:29:06.309Z,6.10
2022-12-19T01:31:33.983Z,6.30
2022-12-19T01:34:01.528Z,6.37
2022-12-19T01:36:28.688Z,6.00
2022-12-19T01:38:59.104Z,6.03
2022-12-19T01:41:26.439Z,5.90
2022-12-19T01:44:13.721Z,6.73
2022-12-19T01:46:42.884Z,5.37
2022-12-19T01:49:16.079Z,5.57
2022-12-19T01:51:46.355Z,5.53
2022-12-19T01:54:15.868Z,5.87
2022-12-19T01:56:45.748Z,6.00
2022-12-19T01:59:15.487Z,5.47
2022-12-19T02:01:51.572Z,6.50
2022-12-19T02:04:19.556Z,5.83
2022-12-19T02:06:47.720Z,5.93
2022-12-19T02:09:15.137Z,5.63
2022-12-19T02:11:42.262Z,4.87
2022-12-19T02:14:09.344Z,6.50
2022-12-19T02:16:36.404Z,4.50
2022-12-19T02:19:06.468Z,6.20
2022-12-19T02:21:36.246Z,4.90
2022-12-19T02:24:21.888Z,5.63
2022-12-19T02:26:56.255Z,4.63
2022-12-19T02:29:26.430Z,5.23
2022-12-19T02:31:56.278Z,3.93
2022-12-19T02:34:23.333Z,5.33
2022-12-19T02:37:01.474Z,4.83
2022-12-19T02:39:30.510Z,4.43
2022-12-19T02:42:00.819Z,4.87
2022-12-19T02:44:33.427Z,4.43
2022-12-19T02:47:01.580Z,4.20
2022-12-19T02:49:31.112Z,4.50
2022-12-19T02:51:58.526Z,4.67
2022-12-19T02:54:26.013Z,4.73
2022-12-19T02:57:00.028Z,4.57
2022-12-19T02:59:36.520Z,5.13
2022-12-19T03:02:06.667Z,5.53
2022-12-19T03:04:33.924Z,6.43
2022-12-19T03:07:11.216Z,4.80
2022-12-19T03:09:46.248Z,5.07
2022-12-19T03:12:17.859Z,4.83
2022-12-19T03:14:46.251Z,5.00
2022-12-19T03:17:13.475Z,5.07
2022-12-19T03:19:40.924Z,5.63
2022-12-19T03:22:08.404Z,5.03
2022-12-19T03:24:35.803Z,5.40
2022-12-19T03:27:05.524Z,5.23
2022-12-19T03:29:36.406Z,5.57
2022-12-19T03:32:05.560Z,4.63
2022-12-19T03:34:34.617Z,5.13
2022-12-19T03:37:03.929Z,5.27
2022-12-19T03:39:32.362Z,5.80
2022-12-19T03:42:19.045Z,4.47
2022-12-19T03:44:46.154Z,5.17
2022-12-19T03:47:23.630Z,6.13
2022-12-19T03:49:51.849Z,5.70
2022-12-19T03:52:30.886Z,5.80
2022-12-19T03:55:17.751Z,5.43
2022-12-19T03:57:51.373Z,4.60
2022-12-19T04:00:18.892Z,6.30
2022-12-19T04:02:48.372Z,6.00
2022-12-19T04:05:18.662Z,5.40
2022-12-19T04:07:45.823Z,4.90
2022-12-19T04:10:14.834Z,6.43
2022-12-19T04:12:44.304Z,4.27
2022-12-19T04:15:11.623Z,6.10
2022-12-19T04:17:38.675Z,6.97
2022-12-19T04:20:05.810Z,6.97
2022-12-19T04:22:35.425Z,5.70
2022-12-19T04:25:03.638Z,6.50
2022-12-19T04:27:32.214Z,5.63
2022-12-19T04:30:00.166Z,6.50
2022-12-19T04:32:28.014Z,6.30
2022-12-19T04:34:55.107Z,6.73
2022-12-19T04:37:22.171Z,6.83
2022-12-19T04:39:49.227Z,6.30
2022-12-19T04:42:16.653Z,7.13
2022-12-19T04:44:43.774Z,6.33
2022-12-19T04:47:10.805Z,6.20
2022-12-19T04:49:37.887Z,6.50
2022-12-19T04:52:05.027Z,6.47
2022-12-19T04:54:32.979Z,6.80
2022-12-19T04:57:00.047Z,6.90
2022-12-19T04:59:27.182Z,6.23
2022-12-19T05:01:54.454Z,5.93
2022-12-19T05:04:21.611Z,6.07
2022-12-19T05:06:48.662Z,6.50
2022-12-19T05:09:15.701Z,7.23
2022-12-19T05:11:42.796Z,6.70
2022-12-19T05:14:10.218Z,6.67
2022-12-19T05:16:37.321Z,7.53
2022-12-19T05:19:04.611Z,5.90
2022-12-19T05:21:31.709Z,7.00
2022-12-19T05:23:58.879Z,6.00
2022-12-19T05:26:26.109Z,5.93
2022-12-19T05:28:53.300Z,6.23
2022-12-19T05:31:21.485Z,6.77
2022-12-19T05:33:48.815Z,6.57
2022-12-19T05:36:16.821Z,6.33
2022-12-19T05:38:44.015Z,6.77
2022-12-19T05:41:12.576Z,6.70
2022-12-19T05:43:39.961Z,6.87
2022-12-19T05:46:07.748Z,7.47
2022-12-19T05:48:35.270Z,7.13
2022-12-19T05:51:02.411Z,8.27
2022-12-19T05:53:29.535Z,6.30
2022-12-19T05:56:06.899Z,5.30
2022-12-19T05:58:35.817Z,6.33
2022-12-19T06:01:06.565Z,7.40
2022-12-19T06:03:33.734Z,7.17
2022-12-19T06:06:08.159Z,6.33
2022-12-19T06:08:35.711Z,6.73
2022-12-19T06:11:03.815Z,6.00
2022-12-19T06:13:31.391Z,6.40
2022-12-19T06:16:08.759Z,7.53
2022-12-19T06:18:40.447Z,7.60
2022-12-19T06:21:17.502Z,7.30
2022-12-19T06:23:44.940Z,7.27
2022-12-19T06:26:18.709Z,7.10
2022-12-19T06:28:46.894Z,7.73
2022-12-19T06:31:14.310Z,7.40
2022-12-19T06:33:41.395Z,4.70
2022-12-19T06:36:10.874Z,7.67
2022-12-19T06:38:37.941Z,7.77
2022-12-19T06:41:23.793Z,6.73
2022-12-19T06:43:53.627Z,7.80
2022-12-19T06:46:21.468Z,7.50
2022-12-19T06:48:48.696Z,6.70
2022-12-19T06:51:15.785Z,5.80
2022-12-19T06:53:42.850Z,7.37
2022-12-19T06:56:09.969Z,8.47
2022-12-19T06:58:37.050Z,7.50
2022-12-19T07:01:04.200Z,7.80
2022-12-19T07:03:33.013Z,8.33
2022-12-19T07:06:00.101Z,7.00
2022-12-19T07:08:29.598Z,7.57
2022-12-19T07:10:57.084Z,6.80
2022-12-19T07:13:24.244Z,7.63
2022-12-19T07:15:52.982Z,8.07
2022-12-19T07:18:20.065Z,7.47
2022-12-19T07:20:47.145Z,8.20
2022-12-19T07:23:17.657Z,6.87
2022-12-19T07:25:44.879Z,7.93
2022-12-19T07:28:12.078Z,8.73
2022-12-19T07:30:39.205Z,7.73
2022-12-19T07:33:08.053Z,7.70
2022-12-19T07:35:37.951Z,7.97
2022-12-19T07:38:05.745Z,9.73
2022-12-19T07:40:33.196Z,7.97
2022-12-19T07:43:00.728Z,6.03
2022-12-19T07:45:28.242Z,8.40
2022-12-19T07:47:55.366Z,7.57
2022-12-19T07:50:22.835Z,8.23
2022-12-19T07:52:49.870Z,7.97
2022-12-19T07:55:17.033Z,8.43
2022-12-19T07:57:44.065Z,7.23
2022-12-19T08:00:11.391Z,8.67
2022-12-19T08:02:38.734Z,7.67
2022-12-19T08:05:06.060Z,7.77
2022-12-19T08:07:33.440Z,7.33
2022-12-19T08:10:00.607Z,8.60
2022-12-19T08:12:27.734Z,8.43
2022-12-19T08:14:57.341Z,7.50
2022-12-19T08:17:24.656Z,8.10
2022-12-19T08:19:51.798Z,7.97
2022-12-19T08:22:18.914Z,7.90
2022-12-19T08:24:46.002Z,8.87
2022-12-19T08:27:13.059Z,8.17
2022-12-19T08:29:40.198Z,8.00
2022-12-19T08:32:07.255Z,7.67
2022-12-19T08:34:34.336Z,8.53
2022-12-19T08:37:01.404Z,8.03
2022-12-19T08:39:28.506Z,6.97
2022-12-19T08:41:55.545Z,7.00
2022-12-19T08:44:22.607Z,8.07
2022-12-19T08:46:50.617Z,8.17
2022-12-19T08:49:18.790Z,7.97
2022-12-19T08:51:46.075Z,7.57
2022-12-19T08:54:13.313Z,8.27
2022-12-19T08:56:43.009Z,8.10
2022-12-19T08:59:13.720Z,8.20
2022-12-19T09:01:43.078Z,8.07
2022-12-19T09:05:07.364Z,8.50
2022-12-19T09:06:57.394Z,6.87
2022-12-19T09:09:24.455Z,6.37
2022-12-19T09:11:51.637Z,7.87
2022-12-19T09:14:21.171Z,7.40
2022-12-19T09:16:48.974Z,8.37
2022-12-19T09:19:16.781Z,6.37
2022-12-19T09:21:43.892Z,8.10
2022-12-19T09:24:11.318Z,8.10
2022-12-19T09:26:39.295Z,8.20
2022-12-19T09:29:13.945Z,8.07
2022-12-19T09:31:47.580Z,8.00
2022-12-19T09:34:24.057Z,8.17
2022-12-19T09:36:52.034Z,7.27
2022-12-19T09:39:19.193Z,7.07
2022-12-19T09:41:55.144Z,8.77
2022-12-19T09:44:31.073Z,7.70
2022-12-19T09:47:00.106Z,8.37
2022-12-19T09:49:39.921Z,8.30
2022-12-19T09:52:31.022Z,8.20
2022-12-19T09:55:06.442Z,8.63
2022-12-19T09:57:39.517Z,8.13
2022-12-19T10:00:16.799Z,8.70
2022-12-19T10:02:54.766Z,9.20
2022-12-19T10:06:27.334Z,8.63
2022-12-19T10:08:31.680Z,8.43
2022-12-19T10:12:40.457Z,8.07
2022-12-19T10:13:56.087Z,8.33
2022-12-19T10:16:36.850Z,8.67
2022-12-19T10:19:05.632Z,8.40
2022-12-19T10:22:17.015Z,8.73
2022-12-19T10:24:41.860Z,8.03
2022-12-19T10:27:18.207Z,8.93
2022-12-19T10:29:45.238Z,8.70
2022-12-19T10:32:18.656Z,8.07
2022-12-19T10:34:46.643Z,8.97
2022-12-19T10:37:28.683Z,9.13
2022-12-19T10:40:06.660Z,9.17
2022-12-19T10:42:38.726Z,7.30
2022-12-19T10:45:11.874Z,8.33
2022-12-19T10:47:39.169Z,8.47
2022-12-19T10:50:09.671Z,9.03
2022-12-19T10:53:07.480Z,8.27
2022-12-19T10:55:34.701Z,7.67
2022-12-19T10:58:11.419Z,9.47
2022-12-19T11:00:39.131Z,8.67
2022-12-19T11:03:16.815Z,8.07
2022-12-19T11:05:57.778Z,8.63
2022-12-19T11:08:38.161Z,8.33
2022-12-19T11:13:19.243Z,8.27
2022-12-19T11:18:53.648Z,7.83
2022-12-19T11:23:44.301Z,7.30
2022-12-19T11:29:18.091Z,8.17
2022-12-19T11:29:27.491Z,7.83
2022-12-19T11:29:37.055Z,7.73
2022-12-19T11:30:37.987Z,8.63
2022-12-19T11:32:31.999Z,7.50
2022-12-19T11:34:07.421Z,8.67
2022-12-19T11:36:39.822Z,7.77
2022-12-19T11:39:11.705Z,7.80
2022-12-19T11:41:43.777Z,8.30
2022-12-19T11:44:34.136Z,8.37
2022-12-19T11:47:24.523Z,8.73
2022-12-19T11:49:59.380Z,8.80
2022-12-19T11:53:03.496Z,8.53
2022-12-19T11:55:45.367Z,9.53
2022-12-19T11:58:13.300Z,9.23
2022-12-19T12:00:50.272Z,9.33
2022-12-19T12:03:40.515Z,6.30
2022-12-19T12:06:13.711Z,8.87
2022-12-19T12:13:04.137Z,7.17
2022-12-19T12:19:05.794Z,9.10
2022-12-19T12:29:26.469Z,9.63
2022-12-19T12:31:00.702Z,8.83
2022-12-19T12:31:05.337Z,7.70
2022-12-19T12:31:07.827Z,8.40
2022-12-19T12:31:46.923Z,8.53
2022-12-19T12:31:52.359Z,8.27
2022-12-19T12:35:52.286Z,9.03
2022-12-19T12:38:26.581Z,8.73
2022-12-19T12:40:57.553Z,9.37
2022-12-19T12:43:33.832Z,9.17
2022-12-19T12:46:01.439Z,9.73
2022-12-19T12:48:28.531Z,10.77
2022-12-19T12:50:56.863Z,8.70
2022-12-19T12:53:25.770Z,9.13
2022-12-19T12:55:55.526Z,8.73
2022-12-19T12:58:41.247Z,9.97
2022-12-19T13:01:27.438Z,8.97
2022-12-19T13:03:55.808Z,9.10
2022-12-19T13:06:22.883Z,10.77
2022-12-19T13:08:50.400Z,8.63
2022-12-19T13:11:39.032Z,7.63
2022-12-19T13:14:07.124Z,8.83
2022-12-19T13:16:46.356Z,8.53
2022-12-19T13:19:19.847Z,8.90
2022-12-19T13:22:07.580Z,8.90
2022-12-19T13:24:40.724Z,9.63
2022-12-19T13:27:19.849Z,6.80
2022-12-19T13:29:54.355Z,9.23
2022-12-19T13:32:22.320Z,9.33
2022-12-19T13:34:59.326Z,9.30
2022-12-19T13:39:58.315Z,9.77
2022-12-19T13:40:44.456Z,9.67
2022-12-19T13:43:30.346Z,10.10
2022-12-19T13:46:07.811Z,10.00
2022-12-19T13:48:46.502Z,10.77
2022-12-19T13:51:14.181Z,9.67
2022-12-19T13:53:42.425Z,9.77
2022-12-19T13:56:09.469Z,9.80
2022-12-19T13:58:47.475Z,10.30
2022-12-19T14:01:22.662Z,9.60
2022-12-19T14:03:51.143Z,9.70
2022-12-19T14:06:21.033Z,7.03
2022-12-19T14:09:37.377Z,9.87
2022-12-19T14:12:28.256Z,9.80
2022-12-19T14:14:48.766Z,10.57
2022-12-19T14:17:29.989Z,8.30
2022-12-19T14:20:12.272Z,10.20
2022-12-19T14:22:44.155Z,10.20
2022-12-19T14:28:15.195Z,10.30
2022-12-19T14:28:19.205Z,10.67
2022-12-19T14:30:55.469Z,8.73
2022-12-19T14:33:45.855Z,10.90
2022-12-19T14:36:18.549Z,9.77
2022-12-19T14:39:24.938Z,9.50
2022-12-19T14:42:01.926Z,8.80
2022-12-19T14:53:08.571Z,8.40
2022-12-19T14:54:01.842Z,8.27
2022-12-19T14:54:05.326Z,8.17
2022-12-19T14:54:37.232Z,7.93
2022-12-19T14:56:40.627Z,9.13
2022-12-19T14:58:57.994Z,9.90
2022-12-19T15:01:29.705Z,8.87
2022-12-19T15:04:50.342Z,9.67
2022-12-19T15:07:08.732Z,9.70
2022-12-19T15:11:08.579Z,7.50
2022-12-19T15:14:48.216Z,9.30
2022-12-19T15:15:59.301Z,9.20
2022-12-19T15:18:28.417Z,9.53
2022-12-19T15:20:57.545Z,10.50
2022-12-19T15:23:25.225Z,8.53
2022-12-19T15:26:08.788Z,10.30
2022-12-19T15:28:41.157Z,10.10
2022-12-19T15:31:17.823Z,9.03
2022-12-19T15:34:14.443Z,9.83
2022-12-19T15:36:32.005Z,9.57
2022-12-19T15:38:59.401Z,9.13
2022-12-19T15:41:26.482Z,9.67
2022-12-19T15:44:08.993Z,9.93
2022-12-19T15:46:37.179Z,9.33
2022-12-19T15:49:06.987Z,8.97
2022-12-19T15:51:34.088Z,8.93
2022-12-19T15:54:38.196Z,9.47
2022-12-19T15:56:53.090Z,9.40
2022-12-19T15:59:29.819Z,7.60
2022-12-19T16:02:02.237Z,8.10
2022-12-19T16:04:29.460Z,8.47
2022-12-19T16:06:56.619Z,8.67
2022-12-19T16:09:27.792Z,7.83
2022-12-19T16:11:55.477Z,9.40
2022-12-19T16:14:23.063Z,9.10
2022-12-19T16:16:53.045Z,8.67
2022-12-19T16:19:30.321Z,8.10
2022-12-19T16:21:58.364Z,7.50
2022-12-19T16:24:26.140Z,6.73
2022-12-19T16:26:55.219Z,9.17
2022-12-19T16:29:24.398Z,8.80
2022-12-19T16:31:52.044Z,7.37
2022-12-19T16:34:21.412Z,7.53
2022-12-19T16:36:48.647Z,8.70
2022-12-19T16:39:16.137Z,9.03
2022-12-19T16:41:43.859Z,8.40
2022-12-19T16:44:19.433Z,9.90
2022-12-19T16:46:50.855Z,9.00
2022-12-19T16:49:22.920Z,8.70
2022-12-19T16:51:50.262Z,8.53
2022-12-19T16:54:17.669Z,9.37
2022-12-19T16:56:48.133Z,9.50
2022-12-19T16:59:18.327Z,8.60
2022-12-19T17:01:46.193Z,8.17
2022-12-19T17:04:17.981Z,9.23
2022-12-19T17:06:45.116Z,9.40
2022-12-19T17:09:15.857Z,9.23
2022-12-19T17:11:45.607Z,9.87
2022-12-19T17:14:16.998Z,9.30
2022-12-19T17:16:44.385Z,9.17
2022-12-19T17:19:22.746Z,8.70
2022-12-19T17:21:50.179Z,9.70
2022-12-19T17:24:17.270Z,9.13
2022-12-19T17:26:44.776Z,9.83
2022-12-19T17:29:12.348Z,9.67
2022-12-19T17:31:40.158Z,9.73
2022-12-19T17:34:08.653Z,9.37
2022-12-19T17:36:37.702Z,9.70
2022-12-19T17:39:31.306Z,9.80
2022-12-19T17:41:59.817Z,9.17
2022-12-19T17:44:26.924Z,9.20
2022-12-19T17:46:54.247Z,9.37
2022-12-19T17:49:27.357Z,8.97
2022-12-19T17:51:54.545Z,10.37
2022-12-19T17:54:22.203Z,8.87
2022-12-19T17:56:49.694Z,7.17
2022-12-19T17:59:16.890Z,9.10
2022-12-19T18:01:46.856Z,8.70
2022-12-19T18:04:15.212Z,9.73
2022-12-19T18:06:42.377Z,10.57
2022-12-19T18:09:17.693Z,9.00
2022-12-19T18:11:44.812Z,9.47
2022-12-19T18:14:11.908Z,8.83
2022-12-19T18:16:39.253Z,9.53
2022-12-19T18:19:06.692Z,9.67
2022-12-19T18:21:33.816Z,10.07
2022-12-19T18:24:00.871Z,8.73
2022-12-19T18:26:27.988Z,10.03
2022-12-19T18:28:55.026Z,9.80
2022-12-19T18:31:26.393Z,8.87
2022-12-19T18:33:54.508Z,9.20
2022-12-19T18:36:23.149Z,10.27
2022-12-19T18:38:50.908Z,9.27
2022-12-19T18:41:18.548Z,9.73
2022-12-19T18:43:45.946Z,8.57
2022-12-19T18:46:14.787Z,9.07
2022-12-19T18:48:42.724Z,9.37
2022-12-19T18:51:15.593Z,9.77
2022-12-19T18:53:43.102Z,9.87
2022-12-19T18:56:10.187Z,10.10
2022-12-19T18:58:37.557Z,10.00
2022-12-19T19:01:06.145Z,7.40
2022-12-19T19:03:34.941Z,9.10
2022-12-19T19:06:03.720Z,9.37
2022-12-19T19:08:31.737Z,9.17
2022-12-19T19:10:59.458Z,8.73
2022-12-19T19:13:27.073Z,7.73
2022-12-19T19:15:55.546Z,9.30
2022-12-19T19:18:35.644Z,9.33
2022-12-19T19:21:03.383Z,9.17
2022-12-19T19:23:33.175Z,9.50
2022-12-19T19:26:00.256Z,9.30
2022-12-19T19:28:27.403Z,8.87
2022-12-19T19:30:54.919Z,10.17
2022-12-19T19:33:24.594Z,9.63
2022-12-19T19:35:53.943Z,9.27
2022-12-19T19:38:22.307Z,7.93
2022-12-19T19:40:49.553Z,8.73
2022-12-19T19:43:16.667Z,8.00
2022-12-19T19:45:44.150Z,8.90
2022-12-19T19:48:11.511Z,7.57
2022-12-19T19:50:39.030Z,8.30
2022-12-19T19:53:06.153Z,8.07
2022-12-19T19:55:33.220Z,9.03
2022-12-19T19:58:00.619Z,8.17
2022-12-19T20:00:27.686Z,8.50
2022-12-19T20:02:54.923Z,8.60
2022-12-19T20:05:22.063Z,7.87
2022-12-19T20:07:49.148Z,8.53
2022-12-19T20:10:16.223Z,9.03
2022-12-19T20:12:43.274Z,9.47
2022-12-19T20:15:10.493Z,8.30
2022-12-19T20:17:37.591Z,8.57
2022-12-19T20:20:04.976Z,8.53
2022-12-19T20:22:32.027Z,8.77
2022-12-19T20:24:59.191Z,8.07
2022-12-19T20:27:26.383Z,8.00
2022-12-19T20:29:53.440Z,7.57
2022-12-19T20:32:20.530Z,8.80
2022-12-19T20:34:47.652Z,6.87
2022-12-19T20:37:15.120Z,9.57
2022-12-19T20:39:42.285Z,9.07
2022-12-19T20:42:09.483Z,8.77
2022-12-19T20:44:36.674Z,9.03
2022-12-19T20:47:03.809Z,8.90
2022-12-19T20:49:31.174Z,9.50
2022-12-19T20:51:58.303Z,9.43
2022-12-19T20:54:25.415Z,9.17
2022-12-19T20:56:52.532Z,9.50
2022-12-19T20:59:19.651Z,9.13
2022-12-19T21:01:46.907Z,9.03
2022-12-19T21:04:14.389Z,9.17
2022-12-19T21:06:41.866Z,9.37
2022-12-19T21:09:10.438Z,8.80
2022-12-19T21:11:37.529Z,8.93
2022-12-19T21:14:05.923Z,9.17
2022-12-19T21:16:33.048Z,8.03
2022-12-19T21:19:00.264Z,8.73
2022-12-19T21:21:27.753Z,9.13
2022-12-19T21:23:55.503Z,7.93
2022-12-19T21:26:23.406Z,9.97
2022-12-19T21:28:50.896Z,8.80
2022-12-19T21:31:22.779Z,9.90
2022-12-19T21:33:51.321Z,8.63
2022-12-19T21:36:20.752Z,8.67
2022-12-19T21:38:48.288Z,8.57
2022-12-19T21:41:19.467Z,8.97
2022-12-19T21:43:47.502Z,9.37
2022-12-19T21:46:15.227Z,10.30
2022-12-19T21:48:43.743Z,10.20
2022-12-19T21:51:11.233Z,8.63
2022-12-19T21:53:38.923Z,10.07
2022-12-19T21:56:19.634Z,9.97
2022-12-19T21:58:46.724Z,7.70
2022-12-19T22:01:14.287Z,9.03
2022-12-19T22:03:41.572Z,9.87
2022-12-19T22:06:09.249Z,10.00
2022-12-19T22:08:37.006Z,8.83
2022-12-19T22:11:04.152Z,10.23
2022-12-19T22:13:31.255Z,9.40
2022-12-19T22:16:02.010Z,8.93
2022-12-19T22:18:29.236Z,8.07
2022-12-19T22:20:59.766Z,9.93
2022-12-19T22:23:27.055Z,8.30
2022-12-19T22:26:20.281Z,9.13
2022-12-19T22:28:48.577Z,8.60
2022-12-19T22:31:18.894Z,9.87
2022-12-19T22:33:46.542Z,8.57
2022-12-19T22:36:15.492Z,8.73
2022-12-19T22:38:44.145Z,8.53
2022-12-19T22:41:11.803Z,8.50
2022-12-19T22:43:39.347Z,8.57
2022-12-19T22:46:10.239Z,8.47
2022-12-19T22:48:37.492Z,9.53
2022-12-19T22:51:04.735Z,8.57
2022-12-19T22:53:33.398Z,9.43
2022-12-19T22:56:08.009Z,9.77
2022-12-19T22:58:35.689Z,9.27
2022-12-19T23:01:03.539Z,7.60
2022-12-19T23:03:30.793Z,9.50
2022-12-19T23:05:58.039Z,9.27
2022-12-19T23:08:25.092Z,8.60
2022-12-19T23:10:53.192Z,9.33
2022-12-19T23:13:20.600Z,9.70
2022-12-19T23:15:47.901Z,9.50
2022-12-19T23:18:15.407Z,9.37
2022-12-19T23:20:42.725Z,9.47
2022-12-19T23:23:10.607Z,10.23
2022-12-19T23:25:38.683Z,9.03
2022-12-19T23:28:06.143Z,9.50
2022-12-19T23:30:33.210Z,8.77
2022-12-19T23:33:00.929Z,9.53
2022-12-19T23:35:28.342Z,9.60
2022-12-19T23:37:55.520Z,9.50
2022-12-19T23:40:22.715Z,9.03
2022-12-19T23:42:49.845Z,9.07
2022-12-19T23:45:17.084Z,9.57
2022-12-19T23:47:44.552Z,9.10
2022-12-19T23:50:12.161Z,8.57
2022-12-19T23:52:39.341Z,8.77
2022-12-19T23:55:06.676Z,9.20
2022-12-19T23:57:33.717Z,9.30
